sensor_id;sensor_type;location;lat;lon;timestamp;pressure;altitude;pressure_sealevel;temperature;humidity
41467;BME280;27205;53.690;19.948;2023-06-26T00:04:25;100029.34;;;16.65;59.28
41467;BME280;27205;53.690;19.948;2023-06-26T00:09:29;100029.41;;;16.54;59.81
41467;BME280;27205;53.690;19.948;2023-06-26T00:14:32;100026.75;;;16.42;60.24
41467;BME280;27205;53.690;19.948;2023-06-26T00:19:36;100022.91;;;16.31;61.03
41467;BME280;27205;53.690;19.948;2023-06-26T00:24:40;100024.16;;;16.26;60.88
41467;BME280;27205;53.690;19.948;2023-06-26T00:29:43;100019.71;;;16.25;61.10
41467;BME280;27205;53.690;19.948;2023-06-26T00:34:47;100020.88;;;16.21;61.65
41467;BME280;27205;53.690;19.948;2023-06-26T00:39:50;100018.60;;;16.21;61.96
41467;BME280;27205;53.690;19.948;2023-06-26T00:44:54;100015.73;;;16.21;62.10
41467;BME280;27205;53.690;19.948;2023-06-26T00:49:57;100013.70;;;16.16;62.61
41467;BME280;27205;53.690;19.948;2023-06-26T00:55:01;100010.61;;;16.04;62.95
41467;BME280;27205;53.690;19.948;2023-06-26T01:00:05;100008.84;;;16.00;63.22
41467;BME280;27205;53.690;19.948;2023-06-26T01:05:09;100003.99;;;15.98;63.28
41467;BME280;27205;53.690;19.948;2023-06-26T01:10:16;100005.27;;;15.94;63.86
41467;BME280;27205;53.690;19.948;2023-06-26T01:15:19;100003.66;;;15.88;63.97
41467;BME280;27205;53.690;19.948;2023-06-26T01:20:23;99995.10;;;15.84;64.60
41467;BME280;27205;53.690;19.948;2023-06-26T01:25:37;99991.31;;;15.85;64.12
41467;BME280;27205;53.690;19.948;2023-06-26T01:30:47;99986.06;;;15.83;64.51
41467;BME280;27205;53.690;19.948;2023-06-26T01:35:51;99980.86;;;15.76;64.80
41467;BME280;27205;53.690;19.948;2023-06-26T01:40:55;99977.06;;;15.71;65.21
41467;BME280;27205;53.690;19.948;2023-06-26T01:46:01;99974.91;;;15.70;65.12
41467;BME280;27205;53.690;19.948;2023-06-26T01:51:07;99965.27;;;15.74;65.47
41467;BME280;27205;53.690;19.948;2023-06-26T01:56:17;99963.95;;;15.70;66.08
41467;BME280;27205;53.690;19.948;2023-06-26T02:01:22;99964.14;;;15.64;66.27
41467;BME280;27205;53.690;19.948;2023-06-26T02:06:26;99964.44;;;15.60;66.41
41467;BME280;27205;53.690;19.948;2023-06-26T02:11:29;99962.11;;;15.57;66.62
41467;BME280;27205;53.690;19.948;2023-06-26T02:16:33;99961.87;;;15.58;66.98
41467;BME280;27205;53.690;19.948;2023-06-26T02:21:36;99961.62;;;15.59;67.23
41467;BME280;27205;53.690;19.948;2023-06-26T02:26:41;99963.99;;;15.64;67.25
41467;BME280;27205;53.690;19.948;2023-06-26T02:31:45;99961.83;;;15.66;67.34
41467;BME280;27205;53.690;19.948;2023-06-26T02:36:48;99953.23;;;15.69;67.34
41467;BME280;27205;53.690;19.948;2023-06-26T02:41:52;99952.89;;;15.74;67.49
41467;BME280;27205;53.690;19.948;2023-06-26T02:46:55;99949.77;;;15.86;67.66
41467;BME280;27205;53.690;19.948;2023-06-26T02:51:59;99954.61;;;15.94;67.74
41467;BME280;27205;53.690;19.948;2023-06-26T02:57:02;99953.95;;;16.00;67.78
41467;BME280;27205;53.690;19.948;2023-06-26T03:02:06;99955.51;;;16.08;67.88
41467;BME280;27205;53.690;19.948;2023-06-26T03:07:09;99958.39;;;16.14;68.08
41467;BME280;27205;53.690;19.948;2023-06-26T03:12:13;99953.92;;;16.24;68.12
41467;BME280;27205;53.690;19.948;2023-06-26T03:17:16;99957.41;;;16.31;68.40
41467;BME280;27205;53.690;19.948;2023-06-26T03:22:20;99953.99;;;16.34;68.58
41467;BME280;27205;53.690;19.948;2023-06-26T03:27:24;99954.01;;;16.44;68.57
41467;BME280;27205;53.690;19.948;2023-06-26T03:32:27;99955.08;;;16.60;68.62
41467;BME280;27205;53.690;19.948;2023-06-26T03:37:31;99957.00;;;16.73;68.95
41467;BME280;27205;53.690;19.948;2023-06-26T03:42:34;99953.30;;;16.91;69.20
41467;BME280;27205;53.690;19.948;2023-06-26T03:47:38;99954.06;;;17.08;69.38
41467;BME280;27205;53.690;19.948;2023-06-26T03:52:41;99948.54;;;17.25;69.29
41467;BME280;27205;53.690;19.948;2023-06-26T03:57:45;99948.05;;;17.45;69.28
41467;BME280;27205;53.690;19.948;2023-06-26T04:02:48;99947.37;;;17.63;69.34
41467;BME280;27205;53.690;19.948;2023-06-26T04:07:54;99949.86;;;17.83;69.40
41467;BME280;27205;53.690;19.948;2023-06-26T04:12:57;99955.23;;;17.95;69.45
41467;BME280;27205;53.690;19.948;2023-06-26T04:18:01;99957.79;;;17.99;69.62
41467;BME280;27205;53.690;19.948;2023-06-26T04:23:04;99959.25;;;18.15;69.68
41467;BME280;27205;53.690;19.948;2023-06-26T04:28:08;99965.09;;;18.23;69.84
41467;BME280;27205;53.690;19.948;2023-06-26T04:33:11;99958.96;;;18.27;70.03
41467;BME280;27205;53.690;19.948;2023-06-26T04:38:15;99958.70;;;18.43;70.01
41467;BME280;27205;53.690;19.948;2023-06-26T04:43:18;99956.30;;;18.66;70.24
41467;BME280;27205;53.690;19.948;2023-06-26T04:48:22;99956.27;;;18.84;70.33
41467;BME280;27205;53.690;19.948;2023-06-26T04:53:25;99960.36;;;19.05;70.37
41467;BME280;27205;53.690;19.948;2023-06-26T04:58:30;99967.21;;;19.26;70.43
41467;BME280;27205;53.690;19.948;2023-06-26T05:03:33;99967.12;;;19.46;70.45
41467;BME280;27205;53.690;19.948;2023-06-26T05:08:37;99962.48;;;19.68;70.44
41467;BME280;27205;53.690;19.948;2023-06-26T05:13:41;99964.23;;;19.79;70.36
41467;BME280;27205;53.690;19.948;2023-06-26T05:18:45;99959.96;;;19.92;70.32
41467;BME280;27205;53.690;19.948;2023-06-26T05:23:48;99957.27;;;20.06;70.42
41467;BME280;27205;53.690;19.948;2023-06-26T05:28:52;99955.19;;;20.11;70.04
41467;BME280;27205;53.690;19.948;2023-06-26T05:33:57;99949.11;;;20.18;69.82
41467;BME280;27205;53.690;19.948;2023-06-26T05:39:04;99947.86;;;20.31;69.87
41467;BME280;27205;53.690;19.948;2023-06-26T05:44:07;99945.36;;;20.40;69.79
41467;BME280;27205;53.690;19.948;2023-06-26T05:49:11;99941.48;;;20.57;69.54
41467;BME280;27205;53.690;19.948;2023-06-26T05:54:17;99939.94;;;20.70;69.23
41467;BME280;27205;53.690;19.948;2023-06-26T05:59:22;99935.86;;;20.76;69.06
41467;BME280;27205;53.690;19.948;2023-06-26T06:04:25;99936.69;;;21.03;69.02
41467;BME280;27205;53.690;19.948;2023-06-26T06:09:29;99937.67;;;21.21;68.47
41467;BME280;27205;53.690;19.948;2023-06-26T06:14:32;99939.28;;;21.38;68.11
41467;BME280;27205;53.690;19.948;2023-06-26T06:19:36;99941.27;;;21.42;67.57
41467;BME280;27205;53.690;19.948;2023-06-26T06:24:39;99942.11;;;21.47;66.40
41467;BME280;27205;53.690;19.948;2023-06-26T06:29:43;99945.88;;;21.50;66.20
41467;BME280;27205;53.690;19.948;2023-06-26T06:34:47;99945.27;;;21.57;66.32
41467;BME280;27205;53.690;19.948;2023-06-26T06:39:50;99943.89;;;21.64;65.85
41467;BME280;27205;53.690;19.948;2023-06-26T06:44:54;99942.55;;;21.75;65.69
41467;BME280;27205;53.690;19.948;2023-06-26T06:49:57;99939.31;;;21.88;64.98
41467;BME280;27205;53.690;19.948;2023-06-26T06:55:01;99940.52;;;21.99;64.44
41467;BME280;27205;53.690;19.948;2023-06-26T07:00:10;99938.83;;;22.10;64.11
41467;BME280;27205;53.690;19.948;2023-06-26T07:05:14;99942.35;;;22.21;63.65
41467;BME280;27205;53.690;19.948;2023-06-26T07:10:18;99944.80;;;22.31;63.28
41467;BME280;27205;53.690;19.948;2023-06-26T07:15:21;99944.08;;;22.42;62.24
41467;BME280;27205;53.690;19.948;2023-06-26T07:20:26;99942.86;;;22.58;62.23
41467;BME280;27205;53.690;19.948;2023-06-26T07:25:30;99945.77;;;22.69;60.91
41467;BME280;27205;53.690;19.948;2023-06-26T07:30:33;99947.74;;;22.85;60.88
41467;BME280;27205;53.690;19.948;2023-06-26T07:35:38;99941.05;;;23.07;60.48
41467;BME280;27205;53.690;19.948;2023-06-26T07:40:41;99945.98;;;23.30;59.84
41467;BME280;27205;53.690;19.948;2023-06-26T07:45:45;99945.30;;;23.53;59.31
41467;BME280;27205;53.690;19.948;2023-06-26T07:50:48;99948.55;;;23.64;56.96
41467;BME280;27205;53.690;19.948;2023-06-26T07:55:52;99947.82;;;23.74;56.33
41467;BME280;27205;53.690;19.948;2023-06-26T08:00:56;99949.74;;;24.03;56.40
41467;BME280;27205;53.690;19.948;2023-06-26T08:05:59;99947.39;;;24.07;54.28
41467;BME280;27205;53.690;19.948;2023-06-26T08:11:03;99948.10;;;24.08;53.07
41467;BME280;27205;53.690;19.948;2023-06-26T08:16:06;99945.50;;;24.31;53.41
41467;BME280;27205;53.690;19.948;2023-06-26T08:21:10;99937.66;;;24.37;51.02
41467;BME280;27205;53.690;19.948;2023-06-26T08:26:14;99937.77;;;24.35;49.31
41467;BME280;27205;53.690;19.948;2023-06-26T08:31:17;99938.52;;;24.40;47.63
41467;BME280;27205;53.690;19.948;2023-06-26T08:36:21;99934.55;;;24.47;47.16
41467;BME280;27205;53.690;19.948;2023-06-26T08:41:25;99933.70;;;24.60;46.17
41467;BME280;27205;53.690;19.948;2023-06-26T08:46:28;99932.42;;;24.61;45.14
41467;BME280;27205;53.690;19.948;2023-06-26T08:51:33;99930.68;;;24.67;45.28
41467;BME280;27205;53.690;19.948;2023-06-26T08:56:42;99926.67;;;24.78;44.47
41467;BME280;27205;53.690;19.948;2023-06-26T09:01:46;99927.79;;;24.79;44.09
41467;BME280;27205;53.690;19.948;2023-06-26T09:06:50;99923.05;;;24.94;43.30
41467;BME280;27205;53.690;19.948;2023-06-26T09:12:02;99917.55;;;25.02;42.33
41467;BME280;27205;53.690;19.948;2023-06-26T09:17:06;99915.67;;;25.12;41.54
41467;BME280;27205;53.690;19.948;2023-06-26T09:22:14;99918.66;;;25.13;40.11
41467;BME280;27205;53.690;19.948;2023-06-26T09:27:18;99918.58;;;25.19;40.31
41467;BME280;27205;53.690;19.948;2023-06-26T09:32:24;99915.20;;;25.32;39.99
41467;BME280;27205;53.690;19.948;2023-06-26T09:37:28;99911.91;;;25.42;39.90
41467;BME280;27205;53.690;19.948;2023-06-26T09:42:31;99908.14;;;25.51;39.58
41467;BME280;27205;53.690;19.948;2023-06-26T09:47:35;99901.05;;;25.55;39.39
41467;BME280;27205;53.690;19.948;2023-06-26T09:52:40;99896.88;;;25.88;39.99
41467;BME280;27205;53.690;19.948;2023-06-26T09:57:46;99900.02;;;26.18;39.43
41467;BME280;27205;53.690;19.948;2023-06-26T10:02:50;99895.55;;;26.22;38.69
41467;BME280;27205;53.690;19.948;2023-06-26T10:07:54;99893.95;;;26.29;38.58
41467;BME280;27205;53.690;19.948;2023-06-26T10:13:02;99887.84;;;26.27;37.99
41467;BME280;27205;53.690;19.948;2023-06-26T10:18:08;99883.27;;;26.33;37.91
41467;BME280;27205;53.690;19.948;2023-06-26T10:23:13;99882.80;;;26.39;37.98
41467;BME280;27205;53.690;19.948;2023-06-26T10:28:19;99877.86;;;26.65;38.06
41467;BME280;27205;53.690;19.948;2023-06-26T10:33:23;99872.13;;;27.00;37.87
41467;BME280;27205;53.690;19.948;2023-06-26T10:38:57;99872.04;;;27.24;37.85
41467;BME280;27205;53.690;19.948;2023-06-26T10:49:12;99862.45;;;27.18;36.33
41467;BME280;27205;53.690;19.948;2023-06-26T10:54:17;99863.55;;;27.15;36.18
41467;BME280;27205;53.690;19.948;2023-06-26T10:59:23;99861.05;;;27.18;35.69
41467;BME280;27205;53.690;19.948;2023-06-26T11:10:05;99855.55;;;27.39;35.45
41467;BME280;27205;53.690;19.948;2023-06-26T11:15:16;99851.79;;;27.74;35.54
41467;BME280;27205;53.690;19.948;2023-06-26T11:20:19;99852.71;;;28.03;34.98
41467;BME280;27205;53.690;19.948;2023-06-26T11:25:23;99852.02;;;27.73;34.10
41467;BME280;27205;53.690;19.948;2023-06-26T11:30:27;99845.33;;;27.64;33.61
41467;BME280;27205;53.690;19.948;2023-06-26T11:35:30;99837.37;;;27.81;33.74
41467;BME280;27205;53.690;19.948;2023-06-26T11:40:36;99834.57;;;28.19;33.45
41467;BME280;27205;53.690;19.948;2023-06-26T11:45:40;99836.36;;;28.22;32.90
41467;BME280;27205;53.690;19.948;2023-06-26T11:50:44;99835.05;;;28.07;33.05
41467;BME280;27205;53.690;19.948;2023-06-26T11:55:49;99830.45;;;28.34;33.11
41467;BME280;27205;53.690;19.948;2023-06-26T12:00:53;99821.57;;;28.58;32.93
41467;BME280;27205;53.690;19.948;2023-06-26T12:05:56;99817.16;;;28.99;32.74
41467;BME280;27205;53.690;19.948;2023-06-26T12:11:00;99816.02;;;29.21;32.19
41467;BME280;27205;53.690;19.948;2023-06-26T12:16:04;99812.05;;;29.13;30.88
41467;BME280;27205;53.690;19.948;2023-06-26T12:21:08;99802.31;;;29.03;30.45
41467;BME280;27205;53.690;19.948;2023-06-26T12:26:19;99803.56;;;29.25;30.88
41467;BME280;27205;53.690;19.948;2023-06-26T12:31:23;99798.12;;;29.28;30.35
41467;BME280;27205;53.690;19.948;2023-06-26T12:36:27;99785.46;;;29.16;30.58
41467;BME280;27205;53.690;19.948;2023-06-26T12:41:31;99777.77;;;29.41;30.56
41467;BME280;27205;53.690;19.948;2023-06-26T12:46:34;99784.89;;;29.60;29.95
41467;BME280;27205;53.690;19.948;2023-06-26T12:51:41;99778.83;;;29.36;29.02
41467;BME280;27205;53.690;19.948;2023-06-26T12:56:46;99776.59;;;29.25;28.23
41467;BME280;27205;53.690;19.948;2023-06-26T13:01:49;99769.66;;;29.35;28.56
41467;BME280;27205;53.690;19.948;2023-06-26T13:06:54;99769.04;;;29.32;28.83
41467;BME280;27205;53.690;19.948;2023-06-26T13:11:58;99768.57;;;29.37;29.16
41467;BME280;27205;53.690;19.948;2023-06-26T13:17:03;99760.95;;;29.42;29.14
41467;BME280;27205;53.690;19.948;2023-06-26T13:22:09;99750.08;;;29.39;29.12
41467;BME280;27205;53.690;19.948;2023-06-26T13:27:13;99746.92;;;29.38;28.26
41467;BME280;27205;53.690;19.948;2023-06-26T13:32:16;99737.73;;;29.35;28.30
41467;BME280;27205;53.690;19.948;2023-06-26T13:37:20;99734.44;;;29.71;28.43
41467;BME280;27205;53.690;19.948;2023-06-26T13:42:24;99728.20;;;30.64;27.98
41467;BME280;27205;53.690;19.948;2023-06-26T13:47:27;99737.32;;;33.31;27.14
41467;BME280;27205;53.690;19.948;2023-06-26T13:52:31;99735.83;;;36.37;25.24
41467;BME280;27205;53.690;19.948;2023-06-26T13:57:34;99735.11;;;39.19;23.53
41467;BME280;27205;53.690;19.948;2023-06-26T14:02:39;99735.94;;;40.85;22.02
41467;BME280;27205;53.690;19.948;2023-06-26T14:07:44;99732.15;;;43.05;21.01
41467;BME280;27205;53.690;19.948;2023-06-26T14:12:48;99729.73;;;44.65;19.74
41467;BME280;27205;53.690;19.948;2023-06-26T14:17:52;99728.19;;;46.96;19.04
41467;BME280;27205;53.690;19.948;2023-06-26T14:22:56;99716.08;;;50.23;17.62
41467;BME280;27205;53.690;19.948;2023-06-26T14:27:59;99717.73;;;52.79;14.87
41467;BME280;27205;53.690;19.948;2023-06-26T14:33:03;99710.33;;;54.03;13.91
41467;BME280;27205;53.690;19.948;2023-06-26T14:38:07;99701.67;;;55.54;13.15
41467;BME280;27205;53.690;19.948;2023-06-26T14:43:10;99698.35;;;56.30;12.38
41467;BME280;27205;53.690;19.948;2023-06-26T14:48:14;99689.46;;;56.68;10.89
41467;BME280;27205;53.690;19.948;2023-06-26T14:53:17;99680.53;;;57.33;10.14
41467;BME280;27205;53.690;19.948;2023-06-26T14:58:22;99676.42;;;57.20;9.61
41467;BME280;27205;53.690;19.948;2023-06-26T15:03:25;99674.64;;;58.03;10.04
41467;BME280;27205;53.690;19.948;2023-06-26T15:08:29;99674.02;;;58.13;8.93
41467;BME280;27205;53.690;19.948;2023-06-26T15:13:33;99671.31;;;56.86;8.58
41467;BME280;27205;53.690;19.948;2023-06-26T15:18:36;99660.36;;;55.49;8.47
41467;BME280;27205;53.690;19.948;2023-06-26T15:23:40;99649.00;;;55.15;8.76
41467;BME280;27205;53.690;19.948;2023-06-26T15:28:43;99655.25;;;55.44;8.50
41467;BME280;27205;53.690;19.948;2023-06-26T15:33:47;99652.42;;;55.40;8.54
41467;BME280;27205;53.690;19.948;2023-06-26T15:38:50;99650.28;;;56.03;8.45
41467;BME280;27205;53.690;19.948;2023-06-26T15:43:54;99648.27;;;56.30;8.30
41467;BME280;27205;53.690;19.948;2023-06-26T15:48:58;99640.56;;;55.34;8.05
41467;BME280;27205;53.690;19.948;2023-06-26T15:54:01;99628.98;;;55.09;8.34
41467;BME280;27205;53.690;19.948;2023-06-26T16:07:14;99610.20;;;53.76;8.71
41467;BME280;27205;53.690;19.948;2023-06-26T16:12:17;99606.19;;;54.28;8.52
41467;BME280;27205;53.690;19.948;2023-06-26T16:17:21;99605.78;;;53.75;8.60
41467;BME280;27205;53.690;19.948;2023-06-26T16:22:24;99603.21;;;53.36;8.54
41467;BME280;27205;53.690;19.948;2023-06-26T16:27:28;99598.76;;;52.65;8.50
41467;BME280;27205;53.690;19.948;2023-06-26T16:32:31;99594.33;;;52.91;8.88
41467;BME280;27205;53.690;19.948;2023-06-26T16:37:35;99595.55;;;51.90;8.85
41467;BME280;27205;53.690;19.948;2023-06-26T16:42:39;99590.09;;;51.35;9.05
41467;BME280;27205;53.690;19.948;2023-06-26T16:47:42;99589.95;;;51.59;9.15
41467;BME280;27205;53.690;19.948;2023-06-26T16:52:46;99589.80;;;52.00;9.03
41467;BME280;27205;53.690;19.948;2023-06-26T16:57:49;99594.48;;;51.53;9.27
41467;BME280;27205;53.690;19.948;2023-06-26T17:02:53;99591.86;;;51.06;9.49
41467;BME280;27205;53.690;19.948;2023-06-26T17:07:57;99577.27;;;49.43;9.79
41467;BME280;27205;53.690;19.948;2023-06-26T17:13:01;99567.35;;;48.17;10.31
41467;BME280;27205;53.690;19.948;2023-06-26T17:18:04;99569.52;;;46.96;10.69
41467;BME280;27205;53.690;19.948;2023-06-26T17:23:08;99573.14;;;44.83;11.62
41467;BME280;27205;53.690;19.948;2023-06-26T17:28:11;99570.15;;;42.46;12.42
41467;BME280;27205;53.690;19.948;2023-06-26T17:33:15;99568.42;;;41.82;13.02
41467;BME280;27205;53.690;19.948;2023-06-26T17:38:18;99569.92;;;41.76;13.04
41467;BME280;27205;53.690;19.948;2023-06-26T17:43:22;99569.47;;;40.82;13.76
41467;BME280;27205;53.690;19.948;2023-06-26T17:48:27;99557.08;;;37.25;15.08
41467;BME280;27205;53.690;19.948;2023-06-26T17:53:30;99557.89;;;34.23;16.80
41467;BME280;27205;53.690;19.948;2023-06-26T17:58:34;99552.36;;;32.00;18.55
41467;BME280;27205;53.690;19.948;2023-06-26T18:03:37;99552.20;;;30.26;19.74
41467;BME280;27205;53.690;19.948;2023-06-26T18:08:41;99548.17;;;28.87;20.81
41467;BME280;27205;53.690;19.948;2023-06-26T18:13:44;99548.02;;;27.87;21.53
41467;BME280;27205;53.690;19.948;2023-06-26T18:18:48;99546.83;;;27.07;22.48
41467;BME280;27205;53.690;19.948;2023-06-26T18:23:53;99549.92;;;26.44;23.04
41467;BME280;27205;53.690;19.948;2023-06-26T18:28:56;99551.65;;;25.88;23.54
41467;BME280;27205;53.690;19.948;2023-06-26T18:34:00;99549.77;;;25.43;23.96
41467;BME280;27205;53.690;19.948;2023-06-26T18:39:04;99547.39;;;25.03;24.43
41467;BME280;27205;53.690;19.948;2023-06-26T18:44:07;99540.73;;;24.68;25.53
41467;BME280;27205;53.690;19.948;2023-06-26T18:49:10;99536.79;;;24.32;26.63
41467;BME280;27205;53.690;19.948;2023-06-26T18:54:14;99539.21;;;23.99;26.39
41467;BME280;27205;53.690;19.948;2023-06-26T18:59:20;99537.84;;;23.79;26.43
41467;BME280;27205;53.690;19.948;2023-06-26T19:04:25;99535.95;;;23.66;26.79
41467;BME280;27205;53.690;19.948;2023-06-26T19:09:29;99534.37;;;23.49;27.20
41467;BME280;27205;53.690;19.948;2023-06-26T19:14:34;99535.45;;;23.28;27.62
41467;BME280;27205;53.690;19.948;2023-06-26T19:19:38;99529.21;;;23.07;28.32
41467;BME280;27205;53.690;19.948;2023-06-26T19:24:42;99521.55;;;22.88;28.37
41467;BME280;27205;53.690;19.948;2023-06-26T19:29:45;99521.98;;;22.69;29.03
41467;BME280;27205;53.690;19.948;2023-06-26T19:34:49;99514.09;;;22.52;29.11
41467;BME280;27205;53.690;19.948;2023-06-26T19:39:52;99510.70;;;22.42;29.45
41467;BME280;27205;53.690;19.948;2023-06-26T19:44:56;99504.57;;;22.31;29.58
41467;BME280;27205;53.690;19.948;2023-06-26T19:50:00;99492.69;;;22.22;29.88
41467;BME280;27205;53.690;19.948;2023-06-26T19:55:04;99491.10;;;22.08;30.46
41467;BME280;27205;53.690;19.948;2023-06-26T20:00:09;99484.07;;;21.97;30.92
41467;BME280;27205;53.690;19.948;2023-06-26T20:05:13;99479.52;;;21.85;31.12
41467;BME280;27205;53.690;19.948;2023-06-26T20:10:17;99472.92;;;21.73;31.81
41467;BME280;27205;53.690;19.948;2023-06-26T20:15:20;99470.02;;;21.65;31.98
41467;BME280;27205;53.690;19.948;2023-06-26T20:20:23;99459.52;;;21.55;32.26
41467;BME280;27205;53.690;19.948;2023-06-26T20:25:27;99454.98;;;21.46;32.74
41467;BME280;27205;53.690;19.948;2023-06-26T20:30:31;99456.04;;;21.35;32.66
41467;BME280;27205;53.690;19.948;2023-06-26T20:35:34;99456.45;;;21.28;32.94
41467;BME280;27205;53.690;19.948;2023-06-26T20:40:38;99456.36;;;21.21;33.17
41467;BME280;27205;53.690;19.948;2023-06-26T20:45:42;99455.67;;;21.11;33.60
41467;BME280;27205;53.690;19.948;2023-06-26T20:50:46;99454.16;;;20.99;33.93
41467;BME280;27205;53.690;19.948;2023-06-26T20:55:50;99453.50;;;20.85;34.12
41467;BME280;27205;53.690;19.948;2023-06-26T21:00:54;99446.15;;;20.72;34.46
41467;BME280;27205;53.690;19.948;2023-06-26T21:05:57;99435.47;;;20.59;34.64
41467;BME280;27205;53.690;19.948;2023-06-26T21:11:01;99425.45;;;20.50;34.96
41467;BME280;27205;53.690;19.948;2023-06-26T21:16:04;99422.38;;;20.41;35.14
41467;BME280;27205;53.690;19.948;2023-06-26T21:21:08;99409.17;;;20.27;35.31
41467;BME280;27205;53.690;19.948;2023-06-26T21:26:12;99403.40;;;20.17;35.64
41467;BME280;27205;53.690;19.948;2023-06-26T21:31:16;99403.79;;;20.08;35.82
41467;BME280;27205;53.690;19.948;2023-06-26T21:36:19;99406.35;;;19.99;36.27
41467;BME280;27205;53.690;19.948;2023-06-26T21:41:23;99403.41;;;19.90;36.41
41467;BME280;27205;53.690;19.948;2023-06-26T21:46:27;99399.48;;;19.83;36.31
41467;BME280;27205;53.690;19.948;2023-06-26T21:51:31;99399.58;;;19.77;37.00
41467;BME280;27205;53.690;19.948;2023-06-26T21:56:34;99397.76;;;19.70;37.27
41467;BME280;27205;53.690;19.948;2023-06-26T22:01:37;99388.94;;;19.63;37.37
41467;BME280;27205;53.690;19.948;2023-06-26T22:06:41;99391.95;;;19.56;37.54
41467;BME280;27205;53.690;19.948;2023-06-26T22:11:45;99389.61;;;19.51;37.81
41467;BME280;27205;53.690;19.948;2023-06-26T22:16:48;99393.46;;;19.46;38.36
41467;BME280;27205;53.690;19.948;2023-06-26T22:21:52;99386.27;;;19.43;38.43
41467;BME280;27205;53.690;19.948;2023-06-26T22:26:55;99376.60;;;19.40;38.78
41467;BME280;27205;53.690;19.948;2023-06-26T22:31:59;99370.77;;;19.38;38.94
41467;BME280;27205;53.690;19.948;2023-06-26T22:37:03;99364.83;;;19.33;39.23
41467;BME280;27205;53.690;19.948;2023-06-26T22:42:07;99365.20;;;19.28;39.27
41467;BME280;27205;53.690;19.948;2023-06-26T22:47:12;99366.09;;;19.25;39.52
41467;BME280;27205;53.690;19.948;2023-06-26T22:52:16;99361.86;;;19.22;39.68
41467;BME280;27205;53.690;19.948;2023-06-26T22:57:20;99348.42;;;19.19;40.23
41467;BME280;27205;53.690;19.948;2023-06-26T23:02:23;99346.88;;;19.17;40.62
41467;BME280;27205;53.690;19.948;2023-06-26T23:07:29;99340.52;;;19.16;40.86
41467;BME280;27205;53.690;19.948;2023-06-26T23:12:33;99335.89;;;19.14;40.97
41467;BME280;27205;53.690;19.948;2023-06-26T23:17:37;99331.94;;;19.08;41.44
41467;BME280;27205;53.690;19.948;2023-06-26T23:22:40;99326.64;;;19.06;41.26
41467;BME280;27205;53.690;19.948;2023-06-26T23:27:45;99318.10;;;19.09;41.62
41467;BME280;27205;53.690;19.948;2023-06-26T23:32:48;99310.59;;;19.09;41.93
41467;BME280;27205;53.690;19.948;2023-06-26T23:37:52;99306.95;;;19.12;42.17
41467;BME280;27205;53.690;19.948;2023-06-26T23:42:58;99346.39;;;19.16;42.93
41467;BME280;27205;53.690;19.948;2023-06-26T23:48:06;99400.16;;;19.13;44.87
41467;BME280;27205;53.690;19.948;2023-06-26T23:53:09;99362.78;;;19.14;45.32
41467;BME280;27205;53.690;19.948;2023-06-26T23:58:13;99411.79;;;19.33;45.36
